createdAt,value
2022-10-19T00:00:47.858Z,100917.05
2022-10-19T00:03:28.430Z,100914.23
2022-10-19T00:05:55.157Z,100912.30
2022-10-19T00:08:21.785Z,100917.05
2022-10-19T00:10:48.373Z,100916.16
2022-10-19T00:13:15.029Z,100920.20
2022-10-19T00:15:41.867Z,100924.25
2022-10-19T00:18:08.983Z,100920.21
2022-10-19T00:20:36.572Z,100926.54
2022-10-19T00:23:03.371Z,100925.33
2022-10-19T00:25:30.017Z,100931.82
2022-10-19T00:27:56.756Z,100931.45
2022-10-19T00:30:23.718Z,100932.16
2022-10-19T00:32:50.338Z,100928.29
2022-10-19T00:35:17.122Z,100929.17
2022-10-19T00:37:44.019Z,100929.35
2022-10-19T00:40:11.307Z,100930.23
2022-10-19T00:42:38.129Z,100935.14
2022-10-19T00:45:12.351Z,100930.58
2022-10-19T00:47:39.851Z,100935.48
2022-10-19T00:50:07.546Z,100940.77
2022-10-19T00:52:34.415Z,100938.30
2022-10-19T00:55:01.944Z,100927.40
2022-10-19T00:58:30.001Z,100929.52
2022-10-19T01:01:01.138Z,100925.80
2022-10-19T01:03:28.710Z,100924.40
2022-10-19T01:05:56.052Z,100921.23
2022-10-19T01:08:23.319Z,100909.98
2022-10-19T01:11:08.508Z,100907.35
2022-10-19T01:13:41.215Z,100916.32
2022-10-19T01:16:19.820Z,100914.03
2022-10-19T01:19:02.778Z,100913.70
2022-10-19T01:21:54.150Z,100915.62
2022-10-19T01:24:41.273Z,100906.80
2022-10-19T01:27:52.888Z,100904.67
2022-10-19T01:30:44.342Z,100911.88
2022-10-19T01:33:22.413Z,100913.98
2022-10-19T01:36:22.812Z,100912.59
2022-10-19T01:39:08.017Z,100911.53
2022-10-19T01:41:57.811Z,100900.97
2022-10-19T01:44:44.747Z,100899.20
2022-10-19T01:47:25.539Z,100901.30
2022-10-19T01:50:25.163Z,100892.52
2022-10-19T01:52:54.805Z,100884.26
2022-10-19T01:55:22.352Z,100880.41
2022-10-19T01:57:58.777Z,100877.92
2022-10-19T02:00:27.745Z,100877.58
2022-10-19T02:02:55.461Z,100873.88
2022-10-19T02:05:28.168Z,100874.41
2022-10-19T02:07:59.677Z,100872.47
2022-10-19T02:10:28.701Z,100868.09
2022-10-19T02:12:57.903Z,100877.74
2022-10-19T02:15:27.599Z,100872.45
2022-10-19T02:17:59.185Z,100877.20
2022-10-19T02:20:27.967Z,100865.95
2022-10-19T02:22:55.003Z,100869.82
2022-10-19T02:25:23.423Z,100868.60
2022-10-19T02:27:50.342Z,100875.45
2022-10-19T02:30:21.243Z,100871.23
2022-10-19T02:32:50.055Z,100872.28
2022-10-19T02:35:17.374Z,100878.26
2022-10-19T02:37:44.779Z,100874.56
2022-10-19T02:40:12.149Z,100873.87
2022-10-19T02:42:43.912Z,100875.44
2022-10-19T02:45:27.840Z,100873.52
2022-10-19T02:48:00.694Z,100876.67
2022-10-19T02:50:27.957Z,100877.02
2022-10-19T02:52:54.898Z,100874.74
2022-10-19T02:55:21.736Z,100871.58
2022-10-19T02:57:48.638Z,100872.63
2022-10-19T03:00:15.869Z,100872.79
2022-10-19T03:02:42.798Z,100872.92
2022-10-19T03:05:09.774Z,100873.44
2022-10-19T03:07:37.022Z,100874.65
2022-10-19T03:10:04.481Z,100875.50
2022-10-19T03:12:31.344Z,100874.09
2022-10-19T03:14:58.212Z,100879.36
2022-10-19T03:17:25.146Z,100879.52
2022-10-19T03:19:52.024Z,100880.90
2022-10-19T03:22:18.837Z,100884.05
2022-10-19T03:24:45.722Z,100880.55
2022-10-19T03:27:12.685Z,100883.73
2022-10-19T03:29:39.541Z,100885.14
2022-10-19T03:32:06.542Z,100882.35
2022-10-19T03:34:33.439Z,100887.61
2022-10-19T03:37:00.337Z,100886.56
2022-10-19T03:39:27.176Z,100882.17
2022-10-19T03:41:54.040Z,100888.33
2022-10-19T03:44:20.964Z,100886.77
2022-10-19T03:46:47.838Z,100883.59
2022-10-19T03:49:14.768Z,100888.52
2022-10-19T03:51:41.709Z,100885.02
2022-10-19T03:54:14.194Z,100890.12
2022-10-19T03:56:42.119Z,100898.73
2022-10-19T03:59:13.976Z,100897.33
2022-10-19T04:01:43.865Z,100902.96
2022-10-19T04:04:17.096Z,100901.00
2022-10-19T04:06:46.414Z,100904.31
2022-10-19T04:09:15.854Z,100907.10
2022-10-19T04:11:43.360Z,100906.90
2022-10-19T04:14:19.104Z,100916.36
2022-10-19T04:16:54.422Z,100911.37
2022-10-19T04:19:22.212Z,100919.76
2022-10-19T04:21:49.405Z,100920.61
2022-10-19T04:24:18.122Z,100921.98
2022-10-19T04:26:48.113Z,100926.56
2022-10-19T04:29:16.343Z,100926.39
2022-10-19T04:31:43.373Z,100930.80
2022-10-19T04:34:10.390Z,100937.60
2022-10-19T04:36:37.617Z,100943.00
2022-10-19T04:39:05.245Z,100942.10
2022-10-19T04:41:32.757Z,100941.91
2022-10-19T04:44:02.452Z,100940.30
2022-10-19T04:46:30.306Z,100935.36
2022-10-19T04:48:58.796Z,100940.29
2022-10-19T04:51:26.597Z,100939.04
2022-10-19T04:53:57.010Z,100940.11
2022-10-19T04:56:27.115Z,100945.83
2022-10-19T04:58:56.986Z,100948.59
2022-10-19T05:01:25.633Z,100946.84
2022-10-19T05:03:54.706Z,100946.27
2022-10-19T05:06:21.922Z,100948.73
2022-10-19T05:08:52.202Z,100941.54
2022-10-19T05:11:20.180Z,100942.80
2022-10-19T05:13:47.951Z,100947.02
2022-10-19T05:16:18.472Z,100948.18
2022-10-19T05:18:50.066Z,100948.16
2022-10-19T05:21:17.779Z,100949.35
2022-10-19T05:23:45.290Z,100949.50
2022-10-19T05:26:17.521Z,100950.56
2022-10-19T05:28:59.930Z,100951.96
2022-10-19T05:31:29.801Z,100947.44
2022-10-19T05:33:57.178Z,100947.48
2022-10-19T05:36:27.064Z,100950.35
2022-10-19T05:38:55.441Z,100956.34
2022-10-19T05:41:23.791Z,100957.20
2022-10-19T05:43:56.868Z,100962.12
2022-10-19T05:46:25.925Z,100967.58
2022-10-19T05:48:55.343Z,100971.30
2022-10-19T05:51:23.549Z,100968.65
2022-10-19T05:53:51.876Z,100971.98
2022-10-19T05:56:21.484Z,100975.66
2022-10-19T05:58:49.297Z,100980.05
2022-10-19T06:01:18.594Z,100982.15
2022-10-19T06:03:46.644Z,100987.05
2022-10-19T06:06:13.710Z,101000.48
2022-10-19T06:08:40.766Z,101007.94
2022-10-19T06:11:16.858Z,101012.46
2022-10-19T06:13:45.063Z,101017.68
2022-10-19T06:16:14.586Z,101022.86
2022-10-19T06:18:42.355Z,101024.55
2022-10-19T06:21:14.529Z,101029.93
2022-10-19T06:26:14.622Z,101035.15
2022-10-19T06:28:43.660Z,101037.43
2022-10-19T06:31:12.209Z,101041.48
2022-10-19T06:33:40.345Z,101041.79
2022-10-19T06:36:09.866Z,101047.34
2022-10-19T06:38:37.273Z,101052.56
2022-10-19T06:41:04.360Z,101060.44
2022-10-19T06:43:31.771Z,101062.52
2022-10-19T06:45:58.840Z,101065.63
2022-10-19T06:48:25.714Z,101069.96
2022-10-19T06:50:57.213Z,101070.77
2022-10-19T06:53:24.677Z,101071.29
2022-10-19T06:55:51.562Z,101071.64
2022-10-19T06:58:18.424Z,101074.77
2022-10-19T07:00:45.470Z,101078.77
2022-10-19T07:03:12.328Z,101081.35
2022-10-19T07:05:39.243Z,101084.32
2022-10-19T07:08:06.228Z,101088.31
2022-10-19T07:10:33.157Z,101090.42
2022-10-19T07:13:00.025Z,101096.73
2022-10-19T07:15:26.915Z,101101.48
2022-10-19T07:17:53.845Z,101104.13
2022-10-19T07:20:20.732Z,101104.84
2022-10-19T07:22:47.626Z,101107.11
2022-10-19T07:25:14.581Z,101112.19
2022-10-19T07:27:41.717Z,101116.02
2022-10-19T07:30:09.092Z,101119.47
2022-10-19T07:32:35.980Z,101123.48
2022-10-19T07:35:03.104Z,101123.84
2022-10-19T07:37:29.957Z,101126.46
2022-10-19T07:39:56.958Z,101138.21
2022-10-19T07:42:23.942Z,101140.52
2022-10-19T07:44:50.752Z,101144.03
2022-10-19T07:47:17.689Z,101153.17
2022-10-19T07:49:44.762Z,101155.13
2022-10-19T07:52:11.714Z,101157.77
2022-10-19T07:54:38.588Z,101157.89
2022-10-19T07:57:05.543Z,101160.88
2022-10-19T07:59:32.494Z,101165.12
2022-10-19T08:02:01.989Z,101164.63
2022-10-19T08:04:59.122Z,101172.55
2022-10-19T08:07:15.944Z,101170.81
2022-10-19T08:09:58.291Z,101175.78
2022-10-19T08:12:25.255Z,101184.08
2022-10-19T08:14:53.170Z,101187.39
2022-10-19T08:17:20.080Z,101186.14
2022-10-19T08:19:47.330Z,101186.83
2022-10-19T08:22:14.527Z,101192.62
2022-10-19T08:24:41.532Z,101194.41
2022-10-19T08:27:08.890Z,101194.95
2022-10-19T08:29:35.771Z,101194.25
2022-10-19T08:32:02.915Z,101201.83
2022-10-19T08:34:29.806Z,101202.20
2022-10-19T08:36:56.752Z,101202.92
2022-10-19T08:39:23.943Z,101200.79
2022-10-19T08:42:03.034Z,101202.69
2022-10-19T08:44:52.079Z,101209.67
2022-10-19T08:47:25.018Z,101208.81
2022-10-19T08:49:52.069Z,101210.20
2022-10-19T08:52:23.989Z,101214.60
2022-10-19T08:55:00.480Z,101218.29
2022-10-19T08:58:06.043Z,101224.96
2022-10-19T09:00:50.490Z,101229.52
2022-10-19T09:03:56.554Z,101235.67
2022-10-19T09:06:52.170Z,101236.02
2022-10-19T09:09:20.630Z,101240.55
2022-10-19T09:11:50.201Z,101242.28
2022-10-19T09:14:47.869Z,101244.20
2022-10-19T09:17:18.613Z,101246.99
2022-10-19T09:19:45.593Z,101248.13
2022-10-19T09:22:30.256Z,101248.50
2022-10-19T09:25:20.385Z,101248.33
2022-10-19T09:27:52.580Z,101254.48
2022-10-19T09:30:22.796Z,101256.40
2022-10-19T09:33:02.184Z,101254.27
2022-10-19T09:35:48.108Z,101256.76
2022-10-19T09:38:19.369Z,101265.56
2022-10-19T09:40:46.418Z,101271.11
2022-10-19T09:43:21.047Z,101276.30
2022-10-19T09:46:20.561Z,101277.80
2022-10-19T09:48:50.111Z,101273.91
2022-10-19T09:51:18.269Z,101274.81
2022-10-19T09:53:55.456Z,101270.25
2022-10-19T09:56:25.389Z,101272.38
2022-10-19T09:58:55.110Z,101279.05
2022-10-19T10:01:43.054Z,101282.91
2022-10-19T10:04:16.199Z,101282.20
2022-10-19T10:06:46.237Z,101283.92
2022-10-19T10:09:25.762Z,101291.29
2022-10-19T10:11:56.889Z,101294.23
2022-10-19T10:14:31.207Z,101305.42
2022-10-19T10:17:03.801Z,101301.86
2022-10-19T10:19:32.962Z,101303.80
2022-10-19T10:22:00.016Z,101304.31
2022-10-19T10:24:32.195Z,101307.83
2022-10-19T10:27:05.694Z,101303.44
2022-10-19T10:29:35.251Z,101313.98
2022-10-19T10:32:13.446Z,101310.49
2022-10-19T10:34:50.964Z,101314.98
2022-10-19T10:37:28.097Z,101315.92
2022-10-19T10:39:59.195Z,101322.10
2022-10-19T10:42:42.596Z,101320.85
2022-10-19T10:45:28.908Z,101320.05
2022-10-19T10:47:56.875Z,101314.70
2022-10-19T10:50:32.144Z,101312.16
2022-10-19T10:53:07.602Z,101318.17
2022-10-19T10:55:34.719Z,101328.02
2022-10-19T10:58:17.859Z,101325.66
2022-10-19T11:00:47.467Z,101325.61
2022-10-19T11:03:21.542Z,101326.82
2022-10-19T11:05:56.547Z,101331.51
2022-10-19T11:08:48.872Z,101333.02
2022-10-19T11:11:24.557Z,101332.44
2022-10-19T11:13:58.690Z,101329.42
2022-10-19T11:16:38.096Z,101329.61
2022-10-19T11:19:31.538Z,101323.42
2022-10-19T11:22:13.348Z,101331.27
2022-10-19T11:25:15.242Z,101339.23
2022-10-19T11:27:55.083Z,101340.58
2022-10-19T11:30:23.617Z,101338.55
2022-10-19T11:33:09.941Z,101343.40
2022-10-19T11:35:52.670Z,101338.49
2022-10-19T11:38:37.907Z,101338.52
2022-10-19T11:41:28.246Z,101339.12
2022-10-19T11:44:19.948Z,101332.17
2022-10-19T11:47:10.890Z,101335.14
2022-10-19T11:49:58.110Z,101334.86
2022-10-19T11:52:49.604Z,101339.43
2022-10-19T11:55:35.004Z,101335.84
2022-10-19T11:58:30.017Z,101336.01
2022-10-19T12:01:21.481Z,101338.95
2022-10-19T12:03:57.491Z,101343.19
2022-10-19T12:06:53.609Z,101344.85
2022-10-19T12:09:35.631Z,101341.70
2022-10-19T12:12:30.314Z,101339.06
2022-10-19T12:15:23.406Z,101341.88
2022-10-19T12:17:53.714Z,101340.02
2022-10-19T12:20:42.658Z,101340.48
2022-10-19T12:23:32.767Z,101340.73
2022-10-19T12:26:03.829Z,101340.58
2022-10-19T12:28:35.119Z,101341.80
2022-10-19T12:31:04.216Z,101346.86
2022-10-19T12:33:37.712Z,101343.98
2022-10-19T12:36:24.306Z,101341.50
2022-10-19T12:38:59.026Z,101342.23
2022-10-19T12:41:35.636Z,101342.48
2022-10-19T12:47:01.547Z,101340.35
2022-10-19T12:49:28.523Z,101342.94
2022-10-19T12:52:00.244Z,101341.89
2022-10-19T12:54:32.940Z,101340.48
2022-10-19T12:57:02.488Z,101347.09
2022-10-19T12:59:38.942Z,101349.31
2022-10-19T13:02:28.844Z,101348.69
2022-10-19T13:04:55.958Z,101347.75
2022-10-19T13:07:25.977Z,101345.13
2022-10-19T13:09:59.687Z,101344.08
2022-10-19T13:12:28.521Z,101347.88
2022-10-19T13:15:03.594Z,101351.41
2022-10-19T13:17:36.664Z,101357.91
2022-10-19T13:20:12.788Z,101358.70
2022-10-19T13:22:52.481Z,101361.38
2022-10-19T13:25:27.565Z,101361.55
2022-10-19T13:28:17.219Z,101360.89
2022-10-19T13:30:44.151Z,101363.23
2022-10-19T13:33:29.163Z,101363.65
2022-10-19T13:35:58.884Z,101363.45
2022-10-19T13:41:18.615Z,101362.36
2022-10-19T13:43:55.332Z,101362.48
2022-10-19T13:46:28.035Z,101361.02
2022-10-19T13:49:01.302Z,101361.86
2022-10-19T13:51:31.488Z,101367.23
2022-10-19T13:54:04.461Z,101371.81
2022-10-19T13:56:44.880Z,101374.38
2022-10-19T13:59:30.140Z,101380.36
2022-10-19T14:02:18.668Z,101381.46
2022-10-19T14:05:05.262Z,101389.10
2022-10-19T14:07:46.219Z,101390.04
2022-10-19T14:10:22.741Z,101387.16
2022-10-19T14:12:56.388Z,101385.23
2022-10-19T14:15:33.005Z,101382.06
2022-10-19T14:18:03.613Z,101382.36
2022-10-19T14:20:38.329Z,101380.88
2022-10-19T14:23:27.064Z,101383.84
2022-10-19T14:26:00.530Z,101384.66
2022-10-19T14:28:28.092Z,101387.60
2022-10-19T14:30:58.005Z,101389.31
2022-10-19T14:33:25.506Z,101391.17
2022-10-19T14:35:53.662Z,101391.77
2022-10-19T14:38:36.310Z,101390.85
2022-10-19T14:41:06.077Z,101390.30
2022-10-19T14:43:34.030Z,101394.25
2022-10-19T14:46:06.725Z,101394.16
2022-10-19T14:48:45.191Z,101393.10
2022-10-19T14:51:48.508Z,101396.46
2022-10-19T14:54:35.687Z,101391.85
2022-10-19T14:57:26.482Z,101399.02
2022-10-19T15:00:00.250Z,101398.59
2022-10-19T15:02:32.203Z,101399.02
2022-10-19T15:05:01.684Z,101399.10
2022-10-19T15:07:39.238Z,101404.52
2022-10-19T15:10:17.034Z,101402.03
2022-10-19T15:12:44.905Z,101402.35
2022-10-19T15:15:24.614Z,101407.61
2022-10-19T15:17:54.222Z,101407.76
2022-10-19T15:20:43.871Z,101408.13
2022-10-19T15:23:31.070Z,101406.62
2022-10-19T15:26:16.999Z,101407.02
2022-10-19T15:28:48.481Z,101404.34
2022-10-19T15:31:29.308Z,101406.74
2022-10-19T15:34:01.097Z,101412.63
2022-10-19T15:36:30.002Z,101406.21
2022-10-19T15:39:32.709Z,101401.88
2022-10-19T15:42:22.609Z,101405.52
2022-10-19T15:44:49.621Z,101411.94
2022-10-19T15:47:18.472Z,101406.63
2022-10-19T15:49:45.405Z,101407.09
2022-10-19T15:52:14.991Z,101415.14
2022-10-19T15:54:42.456Z,101410.95
2022-10-19T15:57:24.094Z,101409.23
2022-10-19T15:59:51.089Z,101414.71
2022-10-19T16:02:18.106Z,101415.39
2022-10-19T16:04:44.974Z,101414.69
2022-10-19T16:07:21.312Z,101417.10
2022-10-19T16:09:48.197Z,101419.63
2022-10-19T16:12:15.230Z,101417.14
2022-10-19T16:14:42.148Z,101417.59
2022-10-19T16:17:12.571Z,101412.64
2022-10-19T16:19:39.438Z,101413.83
2022-10-19T16:22:06.283Z,101413.81
2022-10-19T16:24:33.615Z,101414.13
2022-10-19T16:27:00.654Z,101412.88
2022-10-19T16:29:29.135Z,101413.38
2022-10-19T16:31:56.363Z,101411.57
2022-10-19T16:34:23.397Z,101412.89
2022-10-19T16:36:50.407Z,101411.91
2022-10-19T16:39:17.467Z,101415.29
2022-10-19T16:41:44.339Z,101415.89
2022-10-19T16:44:12.251Z,101417.98
2022-10-19T16:46:39.158Z,101419.70
2022-10-19T16:49:06.059Z,101420.71
2022-10-19T16:51:35.627Z,101421.00
2022-10-19T16:54:05.186Z,101423.73
2022-10-19T16:56:33.083Z,101426.78
2022-10-19T16:59:06.027Z,101426.86
2022-10-19T17:01:34.424Z,101437.55
2022-10-19T17:04:01.418Z,101437.65
2022-10-19T17:06:28.594Z,101440.59
2022-10-19T17:11:44.483Z,101441.00
2022-10-19T17:14:12.349Z,101445.98
2022-10-19T17:16:39.706Z,101446.39
2022-10-19T17:19:08.018Z,101451.16
2022-10-19T17:21:38.081Z,101461.19
2022-10-19T17:24:07.619Z,101454.46
2022-10-19T17:26:38.022Z,101446.41
2022-10-19T17:29:05.940Z,101453.19
2022-10-19T17:31:32.938Z,101449.27
2022-10-19T17:34:01.398Z,101448.85
2022-10-19T17:36:31.235Z,101450.50
2022-10-19T17:38:59.093Z,101454.94
2022-10-19T17:41:27.374Z,101455.26
2022-10-19T17:43:55.504Z,101452.70
2022-10-19T17:46:25.958Z,101451.19
2022-10-19T17:48:52.962Z,101453.70
2022-10-19T17:51:28.853Z,101454.70
2022-10-19T17:53:58.571Z,101460.44
2022-10-19T17:56:26.273Z,101461.23
2022-10-19T17:58:53.917Z,101463.83
2022-10-19T18:01:21.860Z,101465.70
2022-10-19T18:03:49.875Z,101466.81
2022-10-19T18:06:25.772Z,101463.69
2022-10-19T18:08:54.905Z,101459.35
2022-10-19T18:11:28.147Z,101463.95
2022-10-19T18:13:58.293Z,101464.13
2022-10-19T18:16:28.282Z,101464.08
2022-10-19T18:18:56.328Z,101466.80
2022-10-19T18:21:28.146Z,101468.73
2022-10-19T18:23:56.453Z,101468.98
2022-10-19T18:26:27.268Z,101469.02
2022-10-19T18:28:55.740Z,101470.61
2022-10-19T18:31:25.861Z,101478.35
2022-10-19T18:34:04.819Z,101476.33
2022-10-19T18:36:32.732Z,101474.00
2022-10-19T18:39:01.759Z,101475.87
2022-10-19T18:41:29.522Z,101476.84
2022-10-19T18:44:00.748Z,101479.35
2022-10-19T18:46:27.733Z,101480.64
2022-10-19T18:48:54.979Z,101480.55
2022-10-19T18:51:23.089Z,101483.94
2022-10-19T18:53:50.223Z,101483.83
2022-10-19T18:56:19.435Z,101480.58
2022-10-19T18:58:46.917Z,101484.70
2022-10-19T19:01:20.310Z,101486.19
2022-10-19T19:03:52.108Z,101483.13
2022-10-19T19:06:28.390Z,101479.05
2022-10-19T19:08:56.857Z,101482.39
2022-10-19T19:11:31.738Z,101483.45
2022-10-19T19:14:23.562Z,101484.08
2022-10-19T19:16:50.445Z,101482.63
2022-10-19T19:19:19.123Z,101481.17
2022-10-19T19:21:46.827Z,101478.68
2022-10-19T19:24:17.106Z,101478.38
2022-10-19T19:26:47.836Z,101476.69
2022-10-19T19:29:16.080Z,101473.74
2022-10-19T19:31:43.382Z,101475.36
2022-10-19T19:34:10.475Z,101476.80
2022-10-19T19:36:39.370Z,101480.20
2022-10-19T19:39:06.280Z,101484.02
2022-10-19T19:41:33.598Z,101482.66
2022-10-19T19:44:00.829Z,101484.42
2022-10-19T19:46:28.012Z,101484.55
2022-10-19T19:49:02.828Z,101485.28
2022-10-19T19:51:31.457Z,101487.73
2022-10-19T19:53:58.920Z,101488.85
2022-10-19T19:56:26.627Z,101486.84
2022-10-19T19:58:59.161Z,101486.00
2022-10-19T20:01:26.811Z,101494.57
2022-10-19T20:03:53.802Z,101498.20
2022-10-19T20:06:23.662Z,101502.15
2022-10-19T20:08:56.015Z,101502.40
2022-10-19T20:11:25.144Z,101501.91
2022-10-19T20:13:52.257Z,101502.81
2022-10-19T20:16:25.122Z,101505.99
2022-10-19T20:19:00.618Z,101504.13
2022-10-19T20:21:27.626Z,101504.78
2022-10-19T20:23:54.507Z,101511.39
2022-10-19T20:26:23.589Z,101512.09
2022-10-19T20:28:51.127Z,101509.90
2022-10-19T20:31:19.314Z,101509.08
2022-10-19T20:33:47.408Z,101503.17
2022-10-19T20:36:17.107Z,101502.34
2022-10-19T20:38:50.254Z,101502.77
2022-10-19T20:41:18.784Z,101510.89
2022-10-19T20:43:45.762Z,101512.74
2022-10-19T20:46:15.509Z,101515.84
2022-10-19T20:48:42.462Z,101505.02
2022-10-19T20:51:15.155Z,101508.41
2022-10-19T20:53:45.765Z,101513.39
2022-10-19T20:56:15.122Z,101515.93
2022-10-19T20:58:43.254Z,101522.98
2022-10-19T21:01:18.328Z,101524.15
2022-10-19T21:03:53.802Z,101521.02
2022-10-19T21:06:23.793Z,101520.84
2022-10-19T21:08:50.885Z,101520.08
2022-10-19T21:11:23.780Z,101521.66
2022-10-19T21:14:00.401Z,101523.98
2022-10-19T21:16:35.261Z,101524.36
2022-10-19T21:19:13.572Z,101517.95
2022-10-19T21:21:42.953Z,101516.73
2022-10-19T21:24:13.769Z,101515.85
2022-10-19T21:26:41.573Z,101520.45
2022-10-19T21:29:10.650Z,101521.13
2022-10-19T21:31:45.173Z,101517.10
2022-10-19T21:34:17.826Z,101520.70
2022-10-19T21:36:44.623Z,101523.95
2022-10-19T21:39:11.829Z,101529.90
2022-10-19T21:41:38.831Z,101524.80
2022-10-19T21:44:08.769Z,101524.00
2022-10-19T21:46:35.634Z,101521.28
2022-10-19T21:49:02.770Z,101518.63
2022-10-19T21:51:38.687Z,101517.08
2022-10-19T21:54:07.803Z,101514.88
2022-10-19T21:56:34.766Z,101513.43
2022-10-19T21:59:01.678Z,101506.98
2022-10-19T22:01:30.177Z,101514.96
2022-10-19T22:03:58.782Z,101513.70
2022-10-19T22:06:28.293Z,101514.70
2022-10-19T22:08:56.320Z,101512.67
2022-10-19T22:11:23.940Z,101515.26
2022-10-19T22:13:58.815Z,101516.70
2022-10-19T22:16:27.675Z,101515.63
2022-10-19T22:18:55.649Z,101514.03
2022-10-19T22:21:31.093Z,101511.13
2022-10-19T22:24:07.376Z,101508.47
2022-10-19T22:26:37.730Z,101507.35
2022-10-19T22:29:06.054Z,101510.84
2022-10-19T22:31:33.670Z,101506.70
2022-10-19T22:34:03.928Z,101513.84
2022-10-19T22:36:30.975Z,101514.84
2022-10-19T22:38:57.886Z,101510.31
2022-10-19T22:41:24.697Z,101515.29
2022-10-19T22:43:51.605Z,101511.62
2022-10-19T22:46:18.527Z,101508.06
2022-10-19T22:48:45.351Z,101512.73
2022-10-19T22:51:12.336Z,101514.91
2022-10-19T22:53:39.230Z,101512.73
2022-10-19T22:56:06.717Z,101513.48
2022-10-19T22:58:33.517Z,101515.73
2022-10-19T23:01:01.730Z,101513.55
2022-10-19T23:03:28.619Z,101516.52
2022-10-19T23:05:55.605Z,101520.27
2022-10-19T23:08:22.422Z,101524.58
2022-10-19T23:10:49.384Z,101524.19
2022-10-19T23:13:16.334Z,101525.18
2022-10-19T23:15:44.213Z,101520.08
2022-10-19T23:18:12.306Z,101530.61
2022-10-19T23:20:39.181Z,101530.54
2022-10-19T23:23:05.981Z,101531.81
2022-10-19T23:28:04.950Z,101530.60
2022-10-19T23:30:31.774Z,101529.52
2022-10-19T23:32:58.667Z,101534.66
2022-10-19T23:35:25.471Z,101534.45
2022-10-19T23:37:52.390Z,101532.59
2022-10-19T23:40:19.197Z,101536.45
2022-10-19T23:42:46.109Z,101530.55
2022-10-19T23:45:14.676Z,101527.29
2022-10-19T23:47:41.649Z,101524.43
2022-10-19T23:50:08.638Z,101513.52
2022-10-19T23:52:35.697Z,101513.37
2022-10-19T23:55:03.003Z,101509.36
2022-10-19T23:57:29.910Z,101508.08
2022-10-19T23:59:56.800Z,101507.79
